ROMMA est une association bénévole à but non lucratif. Votre soutien est indispensable : ADHERER à ROMMA ou FAIRE un DON

Chambon - (38, Isère)

Oisans (2460 m)   Longitude: 06° 10' 42" E   Latitude: 45° 01' 32" N Station partenaire n°803
 

Détail journalier du     <<     >>

Température Humidité Vent Dir Rafale Dir. rafale Neige 1 Neige 2
Heure (°C) (%) (km/h) (km/h) (cm) (cm)
01:00 0.49810NE34NE03
02:00 -0.2995S14S015
03:00 -0.21002SO10SO08
04:00 0.4997NNE34NE08
05:00 5.16016NE60SSE36
06:00 5.35520SSE57SSE56
07:00 4.45112S42S36
08:00 4.34712SSE41S26
09:00 3.75710SSE42SSE16
10:00 3.5648NE32E06
11:00 4.55111NE41SE06
12:00 4.3648NNE37NNE16
13:00 4.2697NNE36NNE17
14:00 3.2859OSO21O06
15:00 3.5935NNE17OSO25
16:00 2.0993NNE13NNE05
17:00 1.8994NNE11NNE05
18:00 1.9982N10N03
19:00 1.5991N7N05
20:00 1.41004SO10SO05
21:00 1.2995NE12SSE04
22:00 0.91003NE8NE00
23:00 0.91003E8E03
minuit 1.4935NE18NE05

Graphique du 24-10-2019

 

Serveur OMMA